createdAt,value
2023-04-07T00:02:08.205Z,5.00
2023-04-07T00:04:35.255Z,5.00
2023-04-07T00:07:02.163Z,5.00
2023-04-07T00:09:29.056Z,5.00
2023-04-07T00:11:56.379Z,5.00
2023-04-07T00:14:23.265Z,5.00
2023-04-07T00:16:50.137Z,5.00
2023-04-07T00:19:17.019Z,5.00
2023-04-07T00:21:43.894Z,5.00
2023-04-07T00:24:10.864Z,5.00
2023-04-07T00:26:38.643Z,5.10
2023-04-07T00:29:05.539Z,5.10
2023-04-07T00:31:32.498Z,5.00
2023-04-07T00:33:59.416Z,5.10
2023-04-07T00:36:27.216Z,5.00
2023-04-07T00:38:54.082Z,5.10
2023-04-07T00:41:21.070Z,5.10
2023-04-07T00:43:47.926Z,5.10
2023-04-07T00:46:14.913Z,5.10
2023-04-07T00:48:41.817Z,5.10
2023-04-07T00:51:08.691Z,5.10
2023-04-07T00:53:35.749Z,5.20
2023-04-07T00:56:03.011Z,5.10
2023-04-07T00:58:29.971Z,5.20
2023-04-07T01:01:08.885Z,5.20
2023-04-07T01:04:01.504Z,5.20
2023-04-07T01:06:33.613Z,5.20
2023-04-07T01:09:04.698Z,5.20
2023-04-07T01:11:48.697Z,5.20
2023-04-07T01:14:17.854Z,5.20
2023-04-07T01:16:54.715Z,5.20
2023-04-07T01:19:25.238Z,5.20
2023-04-07T01:21:54.162Z,5.20
2023-04-07T01:24:39.722Z,5.20
2023-04-07T01:27:23.111Z,5.10
2023-04-07T01:29:52.344Z,5.00
2023-04-07T01:32:20.947Z,5.00
2023-04-07T01:34:54.102Z,5.00
2023-04-07T01:37:21.684Z,5.00
2023-04-07T01:39:48.623Z,5.00
2023-04-07T01:42:16.544Z,5.00
2023-04-07T01:44:44.705Z,5.00
2023-04-07T01:47:12.447Z,5.00
2023-04-07T01:49:40.897Z,4.90
2023-04-07T01:52:08.267Z,4.90
2023-04-07T01:54:35.829Z,4.90
2023-04-07T01:57:02.753Z,4.90
2023-04-07T01:59:31.043Z,5.00
2023-04-07T02:01:58.329Z,4.90
2023-04-07T02:04:39.067Z,4.90
2023-04-07T02:07:10.866Z,4.80
2023-04-07T02:09:40.999Z,4.70
2023-04-07T02:12:12.202Z,4.70
2023-04-07T02:14:39.179Z,4.70
2023-04-07T02:17:06.807Z,4.70
2023-04-07T02:19:36.105Z,4.70
2023-04-07T02:22:07.102Z,4.60
2023-04-07T02:24:33.972Z,4.60
2023-04-07T02:27:03.612Z,4.60
2023-04-07T02:29:30.533Z,4.70
2023-04-07T02:31:57.509Z,4.70
2023-04-07T02:34:24.398Z,4.70
2023-04-07T02:36:51.687Z,4.60
2023-04-07T02:39:18.576Z,4.60
2023-04-07T02:41:45.445Z,4.60
2023-04-07T02:44:12.338Z,4.60
2023-04-07T02:46:39.283Z,4.60
2023-04-07T02:49:06.440Z,4.70
2023-04-07T02:51:33.371Z,4.60
2023-04-07T02:54:00.293Z,4.60
2023-04-07T02:56:27.192Z,4.60
2023-04-07T02:58:54.064Z,4.60
2023-04-07T03:01:20.961Z,4.70
2023-04-07T03:03:48.112Z,4.70
2023-04-07T03:06:15.127Z,4.70
2023-04-07T03:08:42.329Z,4.70
2023-04-07T03:11:09.263Z,4.70
2023-04-07T03:13:36.343Z,4.60
2023-04-07T03:16:03.623Z,4.70
2023-04-07T03:18:30.459Z,4.70
2023-04-07T03:20:57.508Z,4.70
2023-04-07T03:23:24.410Z,4.70
2023-04-07T03:25:51.282Z,4.70
2023-04-07T03:28:18.114Z,4.70
2023-04-07T03:30:44.996Z,4.70
2023-04-07T03:33:12.497Z,4.60
2023-04-07T03:35:39.398Z,4.70
2023-04-07T03:38:06.340Z,4.70
2023-04-07T03:40:33.796Z,4.60
2023-04-07T03:43:01.424Z,4.60
2023-04-07T03:45:28.277Z,4.60
2023-04-07T03:47:55.513Z,4.60
2023-04-07T03:50:22.531Z,4.70
2023-04-07T03:52:49.394Z,4.70
2023-04-07T03:55:16.508Z,4.70
2023-04-07T03:57:43.445Z,4.60
2023-04-07T04:00:10.972Z,4.60
2023-04-07T04:02:37.918Z,4.60
2023-04-07T04:05:05.136Z,4.60
2023-04-07T04:07:33.720Z,4.70
2023-04-07T04:10:00.687Z,4.70
2023-04-07T04:12:27.584Z,4.70
2023-04-07T04:14:54.628Z,4.70
2023-04-07T04:17:21.558Z,4.70
2023-04-07T04:19:48.461Z,4.70
2023-04-07T04:22:15.362Z,4.70
2023-04-07T04:24:42.204Z,4.80
2023-04-07T04:27:09.207Z,4.90
2023-04-07T04:29:36.142Z,5.00
2023-04-07T04:32:02.992Z,4.90
2023-04-07T04:34:29.912Z,5.00
2023-04-07T04:36:56.767Z,5.00
2023-04-07T04:39:23.605Z,5.00
2023-04-07T04:41:50.542Z,4.90
2023-04-07T04:44:17.423Z,4.80
2023-04-07T04:46:44.355Z,4.80
2023-04-07T04:49:11.588Z,4.90
2023-04-07T04:51:38.449Z,4.90
2023-04-07T04:54:06.492Z,4.90
2023-04-07T04:56:33.945Z,4.90
2023-04-07T04:59:00.853Z,4.90
2023-04-07T05:01:27.725Z,4.90
2023-04-07T05:03:54.883Z,4.90
2023-04-07T05:06:22.077Z,5.00
2023-04-07T05:08:49.043Z,4.90
2023-04-07T05:11:16.678Z,5.00
2023-04-07T05:13:43.706Z,5.00
2023-04-07T05:16:11.165Z,5.10
2023-04-07T05:18:38.158Z,5.10
2023-04-07T05:21:05.098Z,5.00
2023-04-07T05:23:31.956Z,5.10
2023-04-07T05:25:58.779Z,5.20
2023-04-07T05:28:25.620Z,5.20
2023-04-07T05:30:52.478Z,5.20
2023-04-07T05:33:19.732Z,5.30
2023-04-07T05:35:46.811Z,5.40
2023-04-07T05:38:14.368Z,5.40
2023-04-07T05:40:41.459Z,5.40
2023-04-07T05:43:08.334Z,5.30
2023-04-07T05:45:35.223Z,5.30
2023-04-07T05:48:02.134Z,5.20
2023-04-07T05:50:29.109Z,5.20
2023-04-07T05:52:56.371Z,5.10
2023-04-07T05:55:23.382Z,5.10
2023-04-07T05:57:50.245Z,5.20
2023-04-07T06:00:17.370Z,5.30
2023-04-07T06:02:44.462Z,5.40
2023-04-07T06:05:11.560Z,5.40
2023-04-07T06:07:38.486Z,5.50
2023-04-07T06:10:06.228Z,5.50
2023-04-07T06:12:33.086Z,5.50
2023-04-07T06:15:00.053Z,5.40
2023-04-07T06:17:27.138Z,5.30
2023-04-07T06:19:54.082Z,5.40
2023-04-07T06:22:20.974Z,5.50
2023-04-07T06:24:47.829Z,5.40
2023-04-07T06:27:14.825Z,5.40
2023-04-07T06:29:41.793Z,5.30
2023-04-07T06:32:08.662Z,5.30
2023-04-07T06:34:35.560Z,5.30
2023-04-07T06:37:02.750Z,5.20
2023-04-07T06:39:31.174Z,5.30
2023-04-07T06:41:58.233Z,5.30
2023-04-07T06:44:25.292Z,5.30
2023-04-07T06:46:53.448Z,5.30
2023-04-07T06:49:20.677Z,5.50
2023-04-07T06:51:47.616Z,5.60
2023-04-07T06:54:14.985Z,5.70
2023-04-07T06:56:43.188Z,5.80
2023-04-07T06:59:10.367Z,5.80
2023-04-07T07:01:38.085Z,6.00
2023-04-07T07:04:07.825Z,6.00
2023-04-07T07:06:34.896Z,6.00
2023-04-07T07:09:03.290Z,6.10
2023-04-07T07:11:30.529Z,6.00
2023-04-07T07:13:57.413Z,5.90
2023-04-07T07:16:24.589Z,5.90
2023-04-07T07:18:51.687Z,5.90
2023-04-07T07:21:19.368Z,5.90
2023-04-07T07:23:46.926Z,6.10
2023-04-07T07:26:13.964Z,6.00
2023-04-07T07:28:41.040Z,5.90
2023-04-07T07:31:15.213Z,5.90
2023-04-07T07:33:44.149Z,5.90
2023-04-07T07:36:11.432Z,6.10
2023-04-07T07:38:39.055Z,6.20
2023-04-07T07:41:07.486Z,6.40
2023-04-07T07:43:34.353Z,6.40
2023-04-07T07:46:01.545Z,6.40
2023-04-07T07:48:28.475Z,6.50
2023-04-07T07:50:57.071Z,6.40
2023-04-07T07:53:24.087Z,6.50
2023-04-07T07:55:51.416Z,6.60
2023-04-07T07:58:18.376Z,6.70
2023-04-07T08:00:45.394Z,6.70
2023-04-07T08:03:12.458Z,6.50
2023-04-07T08:05:39.451Z,6.50
2023-04-07T08:08:07.757Z,6.50
2023-04-07T08:10:34.663Z,6.60
2023-04-07T08:13:01.572Z,6.60
2023-04-07T08:15:28.503Z,6.70
2023-04-07T08:17:56.375Z,6.70
2023-04-07T08:20:23.976Z,6.60
2023-04-07T08:22:50.939Z,6.60
2023-04-07T08:25:18.007Z,6.60
2023-04-07T08:27:44.895Z,6.60
2023-04-07T08:30:11.935Z,6.60
2023-04-07T08:32:43.770Z,6.50
2023-04-07T08:35:11.912Z,6.60
2023-04-07T08:37:40.180Z,6.50
2023-04-07T08:40:07.900Z,6.60
2023-04-07T08:42:36.342Z,6.60
2023-04-07T08:45:05.846Z,6.60
2023-04-07T08:47:34.721Z,6.60
2023-04-07T08:50:04.461Z,6.70
2023-04-07T08:52:49.236Z,6.70
2023-04-07T08:55:16.488Z,6.80
2023-04-07T08:57:43.877Z,7.00
2023-04-07T09:00:11.701Z,7.00
2023-04-07T09:02:40.874Z,7.00
2023-04-07T09:05:09.115Z,7.00
2023-04-07T09:07:37.996Z,7.00
2023-04-07T09:10:05.692Z,7.10
2023-04-07T09:12:33.412Z,7.20
2023-04-07T09:15:01.043Z,7.20
2023-04-07T09:17:29.286Z,7.20
2023-04-07T09:19:57.759Z,7.20
2023-04-07T09:22:42.683Z,7.20
2023-04-07T09:25:16.410Z,7.30
2023-04-07T09:28:02.362Z,7.30
2023-04-07T09:30:33.862Z,7.40
2023-04-07T09:33:02.005Z,7.20
2023-04-07T09:35:29.989Z,7.00
2023-04-07T09:38:06.972Z,7.00
2023-04-07T09:40:34.707Z,7.00
2023-04-07T09:43:03.905Z,7.00
2023-04-07T09:45:35.137Z,7.10
2023-04-07T09:48:18.242Z,7.20
2023-04-07T09:50:49.545Z,7.30
2023-04-07T09:53:17.339Z,7.40
2023-04-07T09:55:45.169Z,7.40
2023-04-07T09:58:16.516Z,7.40
2023-04-07T10:00:44.374Z,7.50
2023-04-07T10:03:12.321Z,7.60
2023-04-07T10:05:39.501Z,7.40
2023-04-07T10:08:07.015Z,7.40
2023-04-07T10:10:37.125Z,7.40
2023-04-07T10:13:06.395Z,7.60
2023-04-07T10:15:33.858Z,7.60
2023-04-07T10:18:01.608Z,7.60
2023-04-07T10:20:30.051Z,7.60
2023-04-07T10:23:07.161Z,7.50
2023-04-07T10:25:36.493Z,7.50
2023-04-07T10:28:08.208Z,7.50
2023-04-07T10:30:36.412Z,7.50
2023-04-07T10:33:03.722Z,7.50
2023-04-07T10:36:08.393Z,7.50
2023-04-07T10:38:35.553Z,7.30
2023-04-07T10:41:46.050Z,7.10
2023-04-07T10:44:49.839Z,7.20
2023-04-07T10:47:17.108Z,7.30
2023-04-07T10:50:20.606Z,7.40
2023-04-07T10:52:49.341Z,7.60
2023-04-07T10:55:31.710Z,7.60
2023-04-07T10:58:29.234Z,7.50
2023-04-07T11:01:08.463Z,7.40
2023-04-07T11:03:52.140Z,7.50
2023-04-07T11:06:19.209Z,7.60
2023-04-07T11:08:49.550Z,7.80
2023-04-07T11:11:39.933Z,8.10
2023-04-07T11:14:06.891Z,8.20
2023-04-07T11:16:39.401Z,8.10
2023-04-07T11:19:06.758Z,8.00
2023-04-07T11:21:33.931Z,7.90
2023-04-07T11:24:00.918Z,7.80
2023-04-07T11:26:28.213Z,7.90
2023-04-07T11:28:56.217Z,7.90
2023-04-07T11:31:27.914Z,7.90
2023-04-07T11:33:57.204Z,7.90
2023-04-07T11:36:33.246Z,7.90
2023-04-07T11:39:01.596Z,8.00
2023-04-07T11:41:30.781Z,8.10
2023-04-07T11:44:08.873Z,8.20
2023-04-07T11:46:37.013Z,8.30
2023-04-07T11:49:15.723Z,8.00
2023-04-07T11:51:45.314Z,8.00
2023-04-07T11:54:12.319Z,8.00
2023-04-07T11:56:44.352Z,8.10
2023-04-07T11:59:21.239Z,8.30
2023-04-07T12:01:48.454Z,8.40
2023-04-07T12:04:18.729Z,8.50
2023-04-07T12:06:47.644Z,8.30
2023-04-07T12:09:36.002Z,8.20
2023-04-07T12:12:06.420Z,8.20
2023-04-07T12:14:33.554Z,8.20
2023-04-07T12:17:03.260Z,8.20
2023-04-07T12:19:33.667Z,8.30
2023-04-07T12:22:00.717Z,8.50
2023-04-07T12:24:28.744Z,8.50
2023-04-07T12:26:56.302Z,8.70
2023-04-07T12:29:23.264Z,8.80
2023-04-07T12:31:51.373Z,8.90
2023-04-07T12:34:19.045Z,9.00
2023-04-07T12:36:45.951Z,9.00
2023-04-07T12:39:13.043Z,9.10
2023-04-07T12:41:40.121Z,9.00
2023-04-07T12:44:07.176Z,9.00
2023-04-07T12:46:34.232Z,9.00
2023-04-07T12:49:01.253Z,9.00
2023-04-07T12:51:28.624Z,9.10
2023-04-07T12:53:55.521Z,9.10
2023-04-07T12:56:25.086Z,9.10
2023-04-07T12:58:52.252Z,9.20
2023-04-07T13:01:19.457Z,8.90
2023-04-07T13:03:46.611Z,8.80
2023-04-07T13:06:13.833Z,8.70
2023-04-07T13:08:40.931Z,8.60
2023-04-07T13:11:07.896Z,8.60
2023-04-07T13:13:34.917Z,8.60
2023-04-07T13:16:02.042Z,8.60
2023-04-07T13:18:28.917Z,8.50
2023-04-07T13:21:26.353Z,8.40
2023-04-07T13:23:44.058Z,8.50
2023-04-07T13:26:11.646Z,8.50
2023-04-07T13:28:39.190Z,8.40
2023-04-07T13:31:06.518Z,8.40
2023-04-07T13:33:35.137Z,8.30
2023-04-07T13:36:02.010Z,8.20
2023-04-07T13:38:28.929Z,8.10
2023-04-07T13:40:55.760Z,8.10
2023-04-07T13:43:22.654Z,8.10
2023-04-07T13:45:49.885Z,8.00
2023-04-07T13:48:16.860Z,8.00
2023-04-07T13:50:43.688Z,7.90
2023-04-07T13:53:10.626Z,7.90
2023-04-07T13:55:37.541Z,7.90
2023-04-07T13:58:04.391Z,8.00
2023-04-07T14:00:31.434Z,7.80
2023-04-07T14:02:58.442Z,7.90
2023-04-07T14:05:25.632Z,7.80
2023-04-07T14:07:52.566Z,7.90
2023-04-07T14:10:19.528Z,7.90
2023-04-07T14:12:46.702Z,7.90
2023-04-07T14:15:13.570Z,8.00
2023-04-07T14:17:40.594Z,8.10
2023-04-07T14:20:09.125Z,8.00
2023-04-07T14:22:36.062Z,8.00
2023-04-07T14:25:03.973Z,7.90
2023-04-07T14:27:31.343Z,8.00
2023-04-07T14:29:59.667Z,7.90
2023-04-07T14:32:29.855Z,7.80
2023-04-07T14:34:59.178Z,7.80
2023-04-07T14:37:26.766Z,7.90
2023-04-07T14:40:02.505Z,7.90
2023-04-07T14:42:30.357Z,8.00
2023-04-07T14:44:59.868Z,8.00
2023-04-07T14:47:27.615Z,8.00
2023-04-07T14:49:55.572Z,7.90
2023-04-07T14:52:22.533Z,7.90
2023-04-07T14:54:49.462Z,7.90
2023-04-07T14:57:17.188Z,7.90
2023-04-07T14:59:44.253Z,7.90
2023-04-07T15:02:11.472Z,7.90
2023-04-07T15:04:38.859Z,7.90
2023-04-07T15:07:05.906Z,7.80
2023-04-07T15:09:32.852Z,7.80
2023-04-07T15:12:00.891Z,7.80
2023-04-07T15:14:28.000Z,7.80
2023-04-07T15:16:54.876Z,7.80
2023-04-07T15:19:21.804Z,7.80
2023-04-07T15:21:48.690Z,7.60
2023-04-07T15:24:16.425Z,7.60
2023-04-07T15:26:43.743Z,7.50
2023-04-07T15:29:10.819Z,7.50
2023-04-07T15:31:37.791Z,7.50
2023-04-07T15:34:05.408Z,7.60
2023-04-07T15:36:32.467Z,7.60
2023-04-07T15:39:04.487Z,7.60
2023-04-07T15:41:31.973Z,7.50
2023-04-07T15:44:03.343Z,7.50
2023-04-07T15:46:32.265Z,7.40
2023-04-07T15:49:00.076Z,7.40
2023-04-07T15:51:30.036Z,7.50
2023-04-07T15:53:56.973Z,7.50
2023-04-07T15:56:24.910Z,7.50
2023-04-07T15:58:52.217Z,7.50
2023-04-07T16:01:19.718Z,7.40
2023-04-07T16:03:47.929Z,7.40
2023-04-07T16:06:15.518Z,7.30
2023-04-07T16:08:42.468Z,7.30
2023-04-07T16:11:09.319Z,7.20
2023-04-07T16:13:36.424Z,7.20
2023-04-07T16:16:03.420Z,7.20
2023-04-07T16:18:30.525Z,7.20
2023-04-07T16:20:57.479Z,7.20
2023-04-07T16:23:24.483Z,7.20
2023-04-07T16:25:51.524Z,7.10
2023-04-07T16:28:18.457Z,7.10
2023-04-07T16:30:45.373Z,7.00
2023-04-07T16:33:12.529Z,7.00
2023-04-07T16:35:39.390Z,7.00
2023-04-07T16:38:06.494Z,7.00
2023-04-07T16:40:33.953Z,6.90
2023-04-07T16:43:00.885Z,6.90
2023-04-07T16:45:27.733Z,6.90
2023-04-07T16:47:54.638Z,7.00
2023-04-07T16:50:21.688Z,6.90
2023-04-07T16:52:48.638Z,6.90
2023-04-07T16:55:15.759Z,7.00
2023-04-07T16:57:42.685Z,7.00
2023-04-07T17:00:10.086Z,6.90
2023-04-07T17:02:37.100Z,6.80
2023-04-07T17:05:04.173Z,6.80
2023-04-07T17:07:31.135Z,6.90
2023-04-07T17:09:58.120Z,6.90
2023-04-07T17:12:25.021Z,6.90
2023-04-07T17:14:52.025Z,6.80
2023-04-07T17:17:18.867Z,6.80
2023-04-07T17:19:46.105Z,6.80
2023-04-07T17:22:13.004Z,6.80
2023-04-07T17:24:39.858Z,6.80
2023-04-07T17:27:06.850Z,6.80
2023-04-07T17:29:33.805Z,6.80
2023-04-07T17:32:00.760Z,6.80
2023-04-07T17:34:27.981Z,6.80
2023-04-07T17:36:54.834Z,6.80
2023-04-07T17:39:22.221Z,6.80
2023-04-07T17:41:49.157Z,6.70
2023-04-07T17:44:16.135Z,6.70
2023-04-07T17:46:43.261Z,6.60
2023-04-07T17:49:10.131Z,6.60
2023-04-07T17:51:37.738Z,6.60
2023-04-07T17:54:04.634Z,6.50
2023-04-07T17:56:31.563Z,6.50
2023-04-07T17:58:58.465Z,6.50
2023-04-07T18:01:25.713Z,6.40
2023-04-07T18:03:53.681Z,6.40
2023-04-07T18:06:21.032Z,6.40
2023-04-07T18:08:48.523Z,6.40
2023-04-07T18:11:17.282Z,6.40
2023-04-07T18:13:44.969Z,6.40
2023-04-07T18:16:18.719Z,6.50
2023-04-07T18:18:47.840Z,6.50
2023-04-07T18:21:14.673Z,6.50
2023-04-07T18:23:41.687Z,6.50
2023-04-07T18:26:08.713Z,6.50
2023-04-07T18:28:36.135Z,6.50
2023-04-07T18:31:09.085Z,6.40
2023-04-07T18:33:36.740Z,6.40
2023-04-07T18:36:07.421Z,6.40
2023-04-07T18:38:38.306Z,6.40
2023-04-07T18:41:07.381Z,6.40
2023-04-07T18:43:34.454Z,6.40
2023-04-07T18:46:01.578Z,6.40
2023-04-07T18:48:28.609Z,6.30
2023-04-07T18:50:56.670Z,6.30
2023-04-07T18:53:25.281Z,6.20
2023-04-07T18:55:52.569Z,6.20
2023-04-07T18:58:20.363Z,6.10
2023-04-07T19:00:49.951Z,6.20
2023-04-07T19:03:17.203Z,6.20
2023-04-07T19:05:47.573Z,6.20
2023-04-07T19:08:16.011Z,6.10
2023-04-07T19:10:43.576Z,6.10
2023-04-07T19:13:10.712Z,6.10
2023-04-07T19:15:39.581Z,6.10
2023-04-07T19:18:08.425Z,6.10
2023-04-07T19:20:35.569Z,6.20
2023-04-07T19:23:02.880Z,6.20
2023-04-07T19:25:30.935Z,6.10
2023-04-07T19:27:58.417Z,6.10
2023-04-07T19:30:25.619Z,6.10
2023-04-07T19:32:53.097Z,6.10
2023-04-07T19:35:20.085Z,6.10
2023-04-07T19:37:48.225Z,6.10
2023-04-07T19:40:15.730Z,6.10
2023-04-07T19:42:42.790Z,6.00
2023-04-07T19:45:10.489Z,6.00
2023-04-07T19:47:38.621Z,6.00
2023-04-07T19:50:06.289Z,5.90
2023-04-07T19:52:33.441Z,6.00
2023-04-07T19:55:01.570Z,5.90
2023-04-07T19:57:29.195Z,5.90
2023-04-07T19:59:56.197Z,5.90
2023-04-07T20:02:23.453Z,5.90
2023-04-07T20:04:51.136Z,6.00
2023-04-07T20:07:18.147Z,5.90
2023-04-07T20:09:45.115Z,5.90
2023-04-07T20:12:11.988Z,5.90
2023-04-07T20:14:38.961Z,5.90
2023-04-07T20:17:05.925Z,5.80
2023-04-07T20:19:32.829Z,5.80
2023-04-07T20:21:59.677Z,5.70
2023-04-07T20:24:27.187Z,5.80
2023-04-07T20:26:54.038Z,5.80
2023-04-07T20:29:22.289Z,5.90
2023-04-07T20:31:49.332Z,5.80
2023-04-07T20:34:16.745Z,5.80
2023-04-07T20:36:43.895Z,5.70
2023-04-07T20:39:10.837Z,5.70
2023-04-07T20:41:37.890Z,5.70
2023-04-07T20:44:05.628Z,5.70
2023-04-07T20:46:33.458Z,5.70
2023-04-07T20:49:00.566Z,5.70
2023-04-07T20:51:28.989Z,5.70
2023-04-07T20:53:55.931Z,5.80
2023-04-07T20:56:23.930Z,5.70
2023-04-07T20:58:51.243Z,5.70
2023-04-07T21:01:18.369Z,5.70
2023-04-07T21:03:45.479Z,5.70
2023-04-07T21:06:12.462Z,5.70
2023-04-07T21:08:39.596Z,5.60
2023-04-07T21:11:06.491Z,5.60
2023-04-07T21:13:33.395Z,5.60
2023-04-07T21:16:01.405Z,5.60
2023-04-07T21:18:28.385Z,5.50
2023-04-07T21:20:57.746Z,5.50
2023-04-07T21:23:24.677Z,5.50
2023-04-07T21:25:51.535Z,5.50
2023-04-07T21:28:18.363Z,5.40
2023-04-07T21:30:45.517Z,5.40
2023-04-07T21:33:14.198Z,5.40
2023-04-07T21:35:41.274Z,5.50
2023-04-07T21:38:08.204Z,5.50
2023-04-07T21:40:35.074Z,5.40
2023-04-07T21:43:01.984Z,5.50
2023-04-07T21:45:29.792Z,5.50
2023-04-07T21:47:56.849Z,5.40
2023-04-07T21:50:24.159Z,5.50
2023-04-07T21:52:52.055Z,5.40
2023-04-07T21:55:19.264Z,5.40
2023-04-07T21:57:46.744Z,5.40
2023-04-07T22:00:14.507Z,5.30
2023-04-07T22:02:41.700Z,5.30
2023-04-07T22:05:09.273Z,5.20
2023-04-07T22:07:36.257Z,5.30
2023-04-07T22:10:04.201Z,5.30
2023-04-07T22:12:31.072Z,5.30
2023-04-07T22:14:57.925Z,5.30
2023-04-07T22:17:25.614Z,5.20
2023-04-07T22:19:52.607Z,5.20
2023-04-07T22:22:19.529Z,5.20
2023-04-07T22:24:46.426Z,5.20
2023-04-07T22:27:13.309Z,5.20
2023-04-07T22:29:40.170Z,5.20
2023-04-07T22:32:07.195Z,5.20
2023-04-07T22:34:34.135Z,5.10
2023-04-07T22:37:01.086Z,5.10
2023-04-07T22:39:27.969Z,5.10
2023-04-07T22:41:54.880Z,5.10
2023-04-07T22:44:21.727Z,5.00
2023-04-07T22:46:48.748Z,5.10
2023-04-07T22:49:15.725Z,5.10
2023-04-07T22:51:48.404Z,5.10
2023-04-07T22:54:18.313Z,5.10
2023-04-07T22:56:45.416Z,5.10
2023-04-07T22:59:12.580Z,5.10
2023-04-07T23:01:39.573Z,5.10
2023-04-07T23:04:06.803Z,5.10
2023-04-07T23:06:34.047Z,5.10
2023-04-07T23:09:01.150Z,5.10
2023-04-07T23:11:28.066Z,5.10
2023-04-07T23:13:54.925Z,5.10
2023-04-07T23:16:21.872Z,5.00
2023-04-07T23:18:49.046Z,5.10
2023-04-07T23:21:16.250Z,5.10
2023-04-07T23:23:43.474Z,5.10
2023-04-07T23:26:10.380Z,5.10
2023-04-07T23:28:37.293Z,5.10
2023-04-07T23:31:06.677Z,5.10
2023-04-07T23:33:33.740Z,5.00
2023-04-07T23:36:00.858Z,5.10
2023-04-07T23:38:27.788Z,5.00
2023-04-07T23:40:54.710Z,5.00
2023-04-07T23:43:21.909Z,5.00
2023-04-07T23:45:48.840Z,5.00
2023-04-07T23:48:16.217Z,5.00
2023-04-07T23:50:43.125Z,5.10
2023-04-07T23:53:09.997Z,5.10
2023-04-07T23:55:36.956Z,5.10
2023-04-07T23:58:03.888Z,5.10
